メインページ
METAR-TAF:

METAR-TAF

空港 :

ニューオーリンズ, ルイジアナ州, アメリカ合衆国

ルイ・アームストロング・ニューオーリンズ国際空港

緯度: 29-59-34N, 経度: 090-15-03W, 海抜: 1m

現時点の気象観測

当レポートは45分前の14:53(UTC)に作成
西の風 9kt
気温 18°C
湿度 68%
気圧 1017 hPa
視程: 16.1km
高度2500ftの雲はほとんどない

METAR: KMSY 231453Z 28009KT 10SM FEW025 18/12 A3002 RMK AO2 SLP169 T01830117 50008

時間: 10:38 (15:38 UTC)

予報

当レポートは4時間18分前の11:20(UTC)に作成
予報は23日の 12時(UTC)から 24日の 18時(UTC)まで有効
西/北西の風 7kt
視程: 10km
高度25000ftの雲はほとんどない
23日の 1800時(UTC)から
西の風 11kt
視程: 10km
高度8000ftの雲は散在している
24日の 0100時(UTC)から
西/北西の風 7kt
視程: 10km
高度8000ftの雲は散在している

TAF: KMSY 231120Z 2312/2418 30007KT P6SM FEW250 FM231800 28011KT P6SM SCT080 FM240100 29007KT P6SM SCT080

4,000以上の空港の気象観測と天気予報(METAR報とTAF報)

利用可能な観測所は地図上に黄色い丸と赤い丸で示す。

丸の上にカーソルを重ねると観測所名を参照できる。

次にクリックすると気象観測と天気予報を参照できる。

マップの切り替え:黒色「×」印の緑ボタンをクリックして拡大、「-」印の緑ボタンをクリックして縮小、緑色の三角印をクリックして隣りの地図に切り替え


METAR-TAF: